Time;durP1;ratioP1;P1;durP2;ratioP2;P2;SDS_P1;SDS_P2;PMS_P1;PMS_P2;Temp;Humidity;BMP_temperature;BMP_pressure;BME280_temperature;BME280_humidity;BME280_pressure;Samples;Min_cycle;Max_cycle;Signal;HPM_P1;HPM_P2
2023/09/25 00:00:43;;;;;;;2.03;1.17;;;;;;;9.49;100.00;151060.50;10498521;28;20082;-72
2023/09/25 00:05:46;;;;;;;1.27;1.17;;;;;;;9.18;100.00;150980.53;10499437;28;20044;-72
2023/09/25 00:10:48;;;;;;;1.20;1.10;;;;;;;8.87;100.00;150903.13;10500728;28;20493;-72
2023/09/25 00:15:49;;;;;;;1.40;1.30;;;;;;;8.83;100.00;150892.81;10505486;28;20043;-72
2023/09/25 00:20:53;;;;;;;1.10;1.00;;;;;;;8.70;100.00;150859.28;10507074;28;20033;-72
2023/09/25 00:26:06;;;;;;;3.22;1.33;;;;;;;8.97;100.00;150927.63;10506292;28;20044;-72
2023/09/25 00:31:09;;;;;;;1.27;1.17;;;;;;;9.08;100.00;150956.03;10508583;28;20121;-73
2023/09/25 00:36:11;;;;;;;1.80;0.90;;;;;;;8.91;100.00;150913.47;10505345;28;20123;-71
2023/09/25 00:41:13;;;;;;;1.25;1.15;;;;;;;8.82;100.00;150890.25;10487174;28;20063;-71
2023/09/25 00:46:15;;;;;;;1.25;1.15;;;;;;;8.77;100.00;150878.66;10486710;28;20052;-71
2023/09/25 00:51:18;;;;;;;2.13;1.10;;;;;;;8.46;100.00;150800.00;10506708;28;20500;-71
2023/09/25 00:56:21;;;;;;;1.40;1.20;;;;;;;8.44;100.00;150793.53;10504327;28;20497;-72
2023/09/25 01:01:22;;;;;;;1.48;1.17;;;;;;;8.66;100.00;150848.97;10504782;28;20040;-72
2023/09/25 01:06:24;;;;;;;1.42;1.13;;;;;;;8.55;100.00;150821.94;10486096;28;20079;-72
2023/09/25 01:11:28;;;;;;;1.10;1.00;;;;;;;8.43;100.00;150792.25;10504636;28;20048;-72
2023/09/25 01:16:30;;;;;;;1.45;1.30;;;;;;;8.52;100.00;150815.47;10505105;28;20090;-72
2023/09/25 01:21:33;;;;;;;1.52;1.30;;;;;;;8.68;100.00;150854.16;10504179;28;20040;-72
2023/09/25 01:26:36;;;;;;;1.13;1.00;;;;;;;8.44;100.00;150794.81;10486171;28;20044;-73
2023/09/25 01:31:38;;;;;;;1.23;1.02;;;;;;;8.41;100.00;150787.13;10486499;28;20028;-73
2023/09/25 01:36:40;;;;;;;1.20;1.10;;;;;;;8.34;100.00;150770.28;10505401;28;20102;-71
2023/09/25 01:41:42;;;;;;;0.90;0.90;;;;;;;8.22;100.00;150739.34;10484777;28;20048;-68
2023/09/25 01:46:44;;;;;;;1.13;0.93;;;;;;;8.26;100.00;150748.38;10502252;28;20044;-68
2023/09/25 01:51:46;;;;;;;1.17;1.08;;;;;;;8.44;100.00;150794.81;10484214;28;20053;-70
2023/09/25 01:56:47;;;;;;;1.52;1.40;;;;;;;8.19;100.00;150731.66;10485790;28;20127;-69
2023/09/25 02:01:49;;;;;;;1.48;1.13;;;;;;;8.03;100.00;150691.69;10483955;28;20068;-72
2023/09/25 02:06:51;;;;;;;1.80;1.30;;;;;;;7.96;100.00;150673.63;10502626;28;20045;-72
2023/09/25 02:11:52;;;;;;;1.80;1.42;;;;;;;8.24;100.00;150743.25;10467168;28;20064;-72
2023/09/25 02:16:54;;;;;;;4.80;1.27;;;;;;;8.11;100.00;150709.75;10484253;28;20036;-72
2023/09/25 02:21:56;;;;;;;1.48;1.27;;;;;;;7.92;100.00;150662.03;10502850;28;20044;-72
2023/09/25 02:26:59;;;;;;;1.48;1.38;;;;;;;7.77;100.00;150624.69;10501164;28;20040;-72
2023/09/25 02:32:01;;;;;;;1.83;1.35;;;;;;;7.70;100.00;150607.97;10500897;28;20041;-72
2023/09/25 02:37:03;;;;;;;1.40;1.25;;;;;;;7.84;100.00;150644.00;10482386;28;20522;-72
2023/09/25 02:42:05;;;;;;;1.30;1.20;;;;;;;7.77;100.00;150625.97;10503267;28;20041;-71
2023/09/25 02:47:06;;;;;;;1.88;0.90;;;;;;;7.84;100.00;150642.72;10500310;28;20082;-72
2023/09/25 02:52:08;;;;;;;1.17;1.08;;;;;;;7.59;100.00;150580.88;10482710;28;20135;-72
2023/09/25 02:57:10;;;;;;;1.30;1.20;;;;;;;7.67;100.00;150598.94;10482064;28;20558;-71
2023/09/25 03:02:12;;;;;;;2.33;1.20;;;;;;;7.66;100.00;150597.66;10502213;28;20038;-72
2023/09/25 03:07:14;;;;;;;1.60;1.38;;;;;;;7.81;100.00;150636.28;10482767;28;20052;-72
2023/09/25 03:12:15;;;;;;;2.80;1.42;;;;;;;7.58;100.00;150578.31;10499515;28;20064;-72
2023/09/25 03:17:18;;;;;;;1.80;1.40;;;;;;;7.47;100.00;150549.94;10481131;28;20049;-72
2023/09/25 03:22:19;;;;;;;1.27;1.20;;;;;;;7.72;100.00;150611.81;10500035;28;20066;-70
2023/09/25 03:27:21;;;;;;;1.58;1.17;;;;;;;7.65;100.00;150593.75;10499482;28;20452;-70
2023/09/25 03:32:23;;;;;;;1.40;1.30;;;;;;;7.74;100.00;150616.94;10499008;28;20140;-70
2023/09/25 03:37:25;;;;;;;1.60;1.42;;;;;;;7.61;100.00;150584.72;10481097;28;20048;-70
2023/09/25 03:42:27;;;;;;;2.35;1.50;;;;;;;7.19;100.00;150479.13;10480618;28;20098;-71
2023/09/25 03:47:29;;;;;;;1.92;1.77;;;;;;;7.05;100.00;150444.38;10484693;28;20564;-71
2023/09/25 03:52:31;;;;;;;2.08;1.58;;;;;;;6.97;100.00;150422.47;10507587;28;20416;-71
2023/09/25 03:57:33;;;;;;;2.03;1.88;;;;;;;7.43;100.00;150538.34;10508005;28;20067;-71
2023/09/25 04:02:34;;;;;;;2.35;1.80;;;;;;;7.28;100.00;150501.03;10506863;28;20408;-71
2023/09/25 04:07:36;;;;;;;1.70;1.60;;;;;;;7.48;100.00;150552.56;10507882;28;20048;-71
2023/09/25 04:12:38;;;;;;;2.00;1.75;;;;;;;7.14;100.00;150464.97;10487938;28;20083;-71
2023/09/25 04:17:41;;;;;;;2.42;1.70;;;;;;;7.29;100.00;150503.59;10487635;28;20075;-71
2023/09/25 04:22:44;;;;;;;1.88;1.77;;;;;;;7.44;100.00;150542.25;10505899;28;20036;-70
2023/09/25 04:27:53;;;;;;;2.28;1.85;;;;;;;7.08;100.00;150450.78;10506287;28;20040;-70
2023/09/25 04:32:55;;;;;;;2.33;1.63;;;;;;;7.02;100.00;150436.63;10505928;28;20041;-71
2023/09/25 04:37:57;;;;;;;1.98;1.50;;;;;;;6.93;100.00;150412.16;10504865;28;20044;-71
2023/09/25 04:43:00;;;;;;;1.52;1.42;;;;;;;7.29;100.00;150503.59;10486958;28;20136;-70
2023/09/25 04:48:03;;;;;;;2.33;1.80;;;;;;;7.33;100.00;150513.88;10505138;28;20037;-70
2023/09/25 04:53:05;;;;;;;2.47;1.60;;;;;;;7.16;100.00;150470.09;10487614;28;20412;-71
2023/09/25 04:58:08;;;;;;;1.95;1.75;;;;;;;7.51;100.00;150560.25;10486174;28;20071;-71
2023/09/25 05:03:10;;;;;;;2.45;1.73;;;;;;;7.29;100.00;150504.88;10503821;28;20040;-71
2023/09/25 05:08:12;;;;;;;2.22;2.03;;;;;;;7.46;100.00;150547.38;10503546;28;20048;-71
2023/09/25 05:13:14;;;;;;;2.30;1.90;;;;;;;7.31;100.00;150508.75;10505570;28;20067;-71
2023/09/25 05:18:16;;;;;;;2.08;1.85;;;;;;;7.65;100.00;150593.75;10469509;28;20049;-72
2023/09/25 05:23:20;;;;;;;2.28;2.05;;;;;;;7.42;100.00;150537.06;10503587;28;20056;-71
2023/09/25 05:28:22;;;;;;;3.63;2.05;;;;;;;7.34;100.00;150516.44;10504721;28;20071;-70
2023/09/25 05:33:23;;;;;;;2.08;1.85;;;;;;;7.29;100.00;150503.59;10505494;28;20489;-72
2023/09/25 05:38:26;;;;;;;1.77;1.65;;;;;;;7.33;100.00;150513.88;10503424;28;20044;-71
2023/09/25 05:43:28;;;;;;;2.42;2.08;;;;;;;7.39;100.00;150529.34;10504222;28;20060;-71
2023/09/25 05:48:30;;;;;;;2.67;1.98;;;;;;;7.56;100.00;150573.13;10503710;28;20471;-71
2023/09/25 05:53:32;;;;;;;2.00;1.80;;;;;;;7.71;100.00;150609.25;10503843;28;20044;-71
2023/09/25 05:58:35;;;;;;;1.67;1.58;;;;;;;7.91;100.00;150659.47;10505296;28;20101;-71
2023/09/25 06:03:37;;;;;;;2.17;1.58;;;;;;;7.99;100.00;150680.09;10485056;28;20492;-71
2023/09/25 06:08:39;;;;;;;2.05;1.85;;;;;;;8.16;100.00;150722.63;10501987;28;20349;-71
2023/09/25 06:13:40;;;;;;;1.90;1.80;;;;;;;8.40;100.00;150783.22;10501011;28;20045;-71
2023/09/25 06:18:43;;;;;;;2.00;1.80;;;;;;;8.65;100.00;150846.41;10502322;28;20045;-70
2023/09/25 06:23:45;;;;;;;1.80;1.70;;;;;;;8.95;100.00;150922.50;10500727;28;20028;-71
2023/09/25 06:28:46;;;;;;;2.55;1.65;;;;;;;9.07;100.00;150953.41;10501506;28;20068;-70
2023/09/25 06:33:49;;;;;;;2.15;1.95;;;;;;;9.07;100.00;150954.75;10483482;28;20071;-70
2023/09/25 06:38:51;;;;;;;2.03;1.50;;;;;;;9.12;100.00;150966.34;10483715;28;20052;-71
2023/09/25 06:43:54;;;;;;;1.40;1.30;;;;;;;9.46;100.00;151051.44;10501569;28;20473;-71
2023/09/25 06:48:56;;;;;;;1.77;1.63;;;;;;;9.62;99.78;151092.75;10482467;28;20052;-71
2023/09/25 06:53:58;;;;;;;1.70;1.60;;;;;;;9.77;98.80;151130.16;10499863;28;20064;-71
2023/09/25 06:58:59;;;;;;;2.75;1.90;;;;;;;9.88;98.22;151157.28;10499662;28;20044;-71
2023/09/25 07:04:01;;;;;;;2.08;1.80;;;;;;;10.10;96.21;151214.06;10500896;28;20054;-70
2023/09/25 07:09:04;;;;;;;2.10;1.90;;;;;;;10.20;96.31;151239.88;10499294;28;20045;-71
2023/09/25 07:14:05;;;;;;;1.80;1.70;;;;;;;10.19;95.79;151237.28;10498972;28;20048;-70
2023/09/25 07:19:08;;;;;;;2.53;2.33;;;;;;;10.25;98.14;151251.53;10481112;28;20050;-70
2023/09/25 07:24:10;;;;;;;2.25;1.90;;;;;;;10.64;93.22;151349.66;10500710;28;20037;-70
2023/09/25 07:29:12;;;;;;;2.15;1.95;;;;;;;10.85;94.12;151403.91;10498656;28;20385;-70
2023/09/25 07:34:31;;;;;;;2.33;2.13;;;;;;;11.13;92.24;151473.63;10498687;28;20112;-70
2023/09/25 07:39:40;;;;;;;2.30;2.00;;;;;;;11.35;88.96;151531.75;10498789;28;20044;-71
2023/09/25 07:44:42;;;;;;;2.97;1.90;;;;;;;11.57;87.61;151587.31;10499172;28;20507;-71
2023/09/25 07:49:46;;;;;;;3.50;2.20;;;;;;;11.81;88.12;151646.75;10481022;28;20519;-70
2023/09/25 07:54:48;;;;;;;2.42;2.00;;;;;;;11.87;87.33;151662.34;10498978;28;20123;-71
2023/09/25 07:59:51;;;;;;;2.30;2.00;;;;;;;12.09;85.09;151719.22;10497878;28;20041;-71
2023/09/25 08:04:53;;;;;;;2.25;1.80;;;;;;;12.20;86.03;151746.34;10498503;28;20045;-71
2023/09/25 08:09:56;;;;;;;2.00;1.80;;;;;;;12.59;84.71;151845.91;10499171;28;20040;-71
2023/09/25 08:14:58;;;;;;;3.03;1.80;;;;;;;13.35;80.33;152037.38;10497800;28;20072;-72
2023/09/25 08:20:00;;;;;;;2.03;1.83;;;;;;;13.46;82.09;152065.88;10464308;28;20413;-72
2023/09/25 08:25:03;;;;;;;2.35;1.83;;;;;;;13.54;80.10;152086.53;10474466;28;20554;-74
2023/09/25 08:30:07;;;;;;;1.70;1.60;;;;;;;13.66;79.25;152115.03;10464155;28;20047;-73
2023/09/25 08:35:09;;;;;;;2.13;1.60;;;;;;;13.76;77.21;152142.19;10483262;28;20071;-74
2023/09/25 08:40:13;;;;;;;1.50;1.40;;;;;;;14.12;75.73;152234.13;10468024;28;20163;-73
2023/09/25 08:45:15;;;;;;;1.45;1.35;;;;;;;14.39;74.22;152301.44;10445766;28;20132;-73
2023/09/25 08:50:17;;;;;;;1.70;1.60;;;;;;;14.54;73.52;152339.03;10446276;28;20497;-73
2023/09/25 08:55:19;;;;;;;1.73;1.50;;;;;;;14.85;73.71;152419.31;10466093;28;20054;-73
2023/09/25 09:00:23;;;;;;;1.60;1.48;;;;;;;15.20;71.50;152506.13;10504502;28;20036;-74
2023/09/25 09:05:26;;;;;;;1.58;1.15;;;;;;;15.51;71.84;152586.44;10486250;28;20070;-74
2023/09/25 09:10:36;;;;;;;1.63;1.35;;;;;;;16.29;66.47;152783.50;10499919;28;20047;-74
2023/09/25 09:15:39;;;;;;;1.30;1.20;;;;;;;16.63;64.76;152871.69;10482237;28;20032;-74
2023/09/25 09:20:42;;;;;;;1.67;1.10;;;;;;;16.76;65.14;152902.88;10485457;28;20040;-74
2023/09/25 09:25:48;;;;;;;1.23;1.13;;;;;;;16.86;66.72;152930.09;10485222;28;20045;-74
2023/09/25 09:30:50;;;;;;;1.57;1.47;;;;;;;17.19;63.93;153011.84;10466803;28;20037;-72
2023/09/25 09:35:51;;;;;;;3.13;1.08;;;;;;;17.52;63.92;153097.44;10475412;28;20040;-72
2023/09/25 09:40:54;;;;;;;1.70;1.60;;;;;;;17.81;63.28;153170.19;10503165;28;20174;-73
2023/09/25 09:45:56;;;;;;;1.33;1.20;;;;;;;18.16;61.39;153259.78;10502643;28;20040;-73
2023/09/25 09:51:01;;;;;;;2.75;1.77;;;;;;;18.22;61.38;153274.03;10502594;28;20040;-72
2023/09/25 09:56:03;;;;;;;2.55;1.35;;;;;;;18.76;58.86;153411.72;10503566;28;20408;-72
2023/09/25 10:01:05;;;;;;;1.05;1.05;;;;;;;18.86;58.33;153439.03;10501973;28;20047;-72
2023/09/25 10:06:10;;;;;;;2.50;2.30;;;;;;;19.00;58.98;153472.78;10502442;28;20107;-73
2023/09/25 10:11:23;;;;;;;3.72;1.45;;;;;;;19.36;56.74;153565.03;10482370;28;20044;-72
2023/09/25 10:16:29;;;;;;;1.27;1.17;;;;;;;18.99;59.56;153471.50;10501541;28;20042;-73
2023/09/25 10:21:31;;;;;;;1.25;1.15;;;;;;;19.51;57.70;153603.97;10484350;28;20518;-73
2023/09/25 10:26:33;;;;;;;2.13;1.15;;;;;;;19.59;53.90;153624.78;10483480;28;20078;-73
2023/09/25 10:31:35;;;;;;;1.08;0.98;;;;;;;20.01;54.70;153731.44;10483928;28;20551;-73
2023/09/25 10:36:40;;;;;;;1.23;1.10;;;;;;;20.66;53.63;153897.84;10492417;28;20123;-73
2023/09/25 10:41:45;;;;;;;1.52;1.30;;;;;;;21.21;52.24;154037.06;10462837;28;20382;-73
2023/09/25 10:46:47;;;;;;;1.42;0.93;;;;;;;21.51;50.90;154112.53;10470708;28;20063;-71
2023/09/25 10:51:49;;;;;;;0.88;0.80;;;;;;;21.63;50.80;154145.06;10501313;28;20534;-71
2023/09/25 10:56:52;;;;;;;1.45;0.80;;;;;;;22.27;49.41;154306.50;10500676;28;20041;-73
2023/09/25 11:01:54;;;;;;;1.73;0.80;;;;;;;22.87;48.07;154460.13;10483274;28;20575;-70
2023/09/25 11:06:56;;;;;;;0.70;0.60;;;;;;;22.59;49.28;154388.53;10499643;28;20040;-70
2023/09/25 11:12:00;;;;;;;0.60;0.60;;;;;;;22.35;49.61;154328.63;10494048;28;20044;-70
2023/09/25 11:17:03;;;;;;;0.70;0.60;;;;;;;22.42;49.51;154345.56;10463143;28;20077;-69
2023/09/25 11:22:05;;;;;;;0.90;0.52;;;;;;;22.87;48.17;154460.13;10458541;28;20119;-69
2023/09/25 11:27:07;;;;;;;0.45;0.43;;;;;;;22.86;47.66;154457.56;10456313;28;20052;-70
2023/09/25 11:32:10;;;;;;;1.17;0.50;;;;;;;23.30;49.69;154569.63;10457758;28;20105;-70
2023/09/25 11:37:22;;;;;;;0.30;0.30;;;;;;;23.71;46.96;154673.88;10458158;28;20116;-70
2023/09/25 11:42:24;;;;;;;0.40;0.40;;;;;;;23.79;46.81;154694.72;10441239;28;20029;-70
2023/09/25 11:47:25;;;;;;;0.90;0.57;;;;;;;23.31;47.42;154573.50;10458674;28;20469;-70
2023/09/25 11:52:28;;;;;;;0.50;0.40;;;;;;;23.21;47.38;154546.16;10457336;28;20060;-70
2023/09/25 11:57:31;;;;;;;0.40;0.40;;;;;;;23.02;48.00;154497.94;10422045;28;20506;-70
2023/09/25 12:02:33;;;;;;;0.73;0.50;;;;;;;22.97;50.13;154484.94;10457834;28;20041;-69
2023/09/25 12:07:36;;;;;;;0.60;0.40;;;;;;;22.69;49.60;154413.28;10440942;28;20049;-70
2023/09/25 12:12:39;;;;;;;0.30;0.30;;;;;;;22.60;51.33;154391.13;10447139;28;20050;-70
2023/09/25 12:17:42;;;;;;;0.40;0.40;;;;;;;22.51;49.72;154367.72;10447469;28;20048;-69
2023/09/25 12:22:52;;;;;;;0.60;0.50;;;;;;;22.31;49.57;154318.25;10466075;28;20041;-69
2023/09/25 12:27:54;;;;;;;0.93;0.50;;;;;;;21.89;50.55;154210.16;10449064;28;20119;-69
2023/09/25 12:32:56;;;;;;;0.47;0.47;;;;;;;21.58;51.79;154132.06;10447155;28;20045;-70
2023/09/25 12:37:58;;;;;;;0.50;0.40;;;;;;;21.43;52.40;154093.06;10448348;28;20045;-70
2023/09/25 12:43:01;;;;;;;0.57;0.52;;;;;;;21.60;52.11;154135.94;10448656;28;20033;-71
2023/09/25 12:48:04;;;;;;;0.82;0.60;;;;;;;21.64;52.52;154146.38;10464696;28;20060;-70
2023/09/25 12:53:06;;;;;;;0.35;0.35;;;;;;;21.67;51.77;154155.47;10465423;28;20103;-70
2023/09/25 12:58:09;;;;;;;0.60;0.60;;;;;;;21.58;52.05;154130.78;10464049;28;20552;-71
2023/09/25 13:03:11;;;;;;;0.43;0.38;;;;;;;21.55;51.36;154124.25;10446459;28;20041;-71
2023/09/25 13:08:13;;;;;;;0.60;0.60;;;;;;;21.53;51.45;154117.75;10463411;28;20117;-69
2023/09/25 13:13:15;;;;;;;0.50;0.47;;;;;;;21.58;51.34;154130.78;10464500;28;20390;-70
2023/09/25 13:18:17;;;;;;;0.40;0.40;;;;;;;21.47;51.25;154102.13;10445928;28;20111;-71
2023/09/25 13:23:19;;;;;;;0.50;0.50;;;;;;;21.58;52.18;154132.06;10461673;28;20041;-71
2023/09/25 13:28:21;;;;;;;0.50;0.50;;;;;;;21.60;52.54;154135.94;10462564;28;20045;-70
2023/09/25 13:33:23;;;;;;;0.70;0.50;;;;;;;21.58;51.90;154130.78;10463177;28;20497;-70
2023/09/25 13:38:25;;;;;;;0.45;0.40;;;;;;;21.46;52.80;154099.53;10462497;28;20055;-70
2023/09/25 13:43:27;;;;;;;0.40;0.40;;;;;;;21.47;52.83;154103.47;10462558;28;20056;-70
2023/09/25 13:48:29;;;;;;;0.50;0.50;;;;;;;21.47;51.96;154102.13;10444452;28;20097;-70
2023/09/25 13:53:32;;;;;;;0.70;0.65;;;;;;;21.30;53.30;154059.19;10461526;28;20555;-70
2023/09/25 13:58:34;;;;;;;0.50;0.50;;;;;;;21.44;52.52;154095.66;10461746;28;20043;-71
2023/09/25 14:03:36;;;;;;;0.40;0.40;;;;;;;21.35;52.40;154073.53;10460528;28;20053;-71
2023/09/25 14:08:38;;;;;;;1.52;0.50;;;;;;;21.29;53.27;154057.84;10460368;28;20080;-70
2023/09/25 14:13:39;;;;;;;0.60;0.60;;;;;;;20.94;53.57;153968.13;10442576;28;20053;-71
2023/09/25 14:18:41;;;;;;;0.70;0.50;;;;;;;21.01;53.78;153985.00;10444538;28;20041;-71
2023/09/25 14:23:43;;;;;;;0.50;0.50;;;;;;;21.21;53.06;154035.75;10460274;28;20124;-71
2023/09/25 14:28:45;;;;;;;0.68;0.68;;;;;;;21.20;54.28;154034.41;10443805;28;20044;-71
2023/09/25 14:33:47;;;;;;;1.13;0.60;;;;;;;21.46;53.24;154099.53;10461383;28;20044;-73
2023/09/25 14:38:49;;;;;;;0.47;0.47;;;;;;;21.45;53.02;154096.94;10462118;28;20051;-72
2023/09/25 14:43:50;;;;;;;0.60;0.60;;;;;;;21.28;53.64;154055.25;10469259;28;20415;-73
2023/09/25 14:48:52;;;;;;;0.50;0.50;;;;;;;21.39;54.15;154082.63;10481869;28;20075;-72
2023/09/25 14:53:54;;;;;;;0.40;0.40;;;;;;;21.35;54.09;154072.22;10477110;28;20044;-72
2023/09/25 14:58:56;;;;;;;0.50;0.50;;;;;;;21.42;53.91;154090.41;10482105;28;20040;-72
2023/09/25 15:03:58;;;;;;;0.57;0.50;;;;;;;21.54;54.40;154121.66;10498624;28;20414;-72
2023/09/25 15:09:00;;;;;;;0.80;0.60;;;;;;;21.50;54.82;154109.94;10500505;28;20040;-72
2023/09/25 15:14:01;;;;;;;1.30;0.75;;;;;;;21.56;54.21;154126.88;10481907;28;20067;-73
2023/09/25 15:19:03;;;;;;;0.90;0.40;;;;;;;21.44;54.24;154094.34;10481132;28;20044;-73
2023/09/25 15:24:05;;;;;;;0.50;0.50;;;;;;;21.30;54.95;154060.47;10500380;28;20029;-72
2023/09/25 15:29:07;;;;;;;0.40;0.40;;;;;;;21.22;54.57;154038.34;10498835;28;20124;-72
2023/09/25 15:34:09;;;;;;;1.20;0.60;;;;;;;20.98;56.34;153977.19;10481230;28;20053;-72
2023/09/25 15:39:11;;;;;;;0.60;0.60;;;;;;;20.95;55.93;153970.72;10480682;28;20099;-73
2023/09/25 15:44:13;;;;;;;0.60;0.55;;;;;;;20.99;56.34;153979.84;10497846;28;20029;-72
2023/09/25 15:49:16;;;;;;;0.82;0.68;;;;;;;20.87;56.76;153951.19;10477486;28;20350;-73
2023/09/25 15:54:18;;;;;;;0.65;0.55;;;;;;;20.94;56.45;153966.78;10498680;28;20065;-72
2023/09/25 15:59:20;;;;;;;0.80;0.47;;;;;;;20.73;57.55;153913.50;10499870;28;20420;-73
2023/09/25 16:04:22;;;;;;;0.60;0.50;;;;;;;20.62;57.46;153887.44;10497769;28;20132;-72
2023/09/25 16:09:24;;;;;;;1.75;0.50;;;;;;;20.30;58.83;153805.50;10493220;28;20055;-72
2023/09/25 16:14:25;;;;;;;0.57;0.57;;;;;;;20.27;58.93;153797.69;10482268;28;20567;-71
2023/09/25 16:19:27;;;;;;;0.80;0.70;;;;;;;20.40;58.59;153830.19;10470460;28;20045;-72
2023/09/25 16:24:29;;;;;;;0.75;0.55;;;;;;;20.31;59.10;153806.78;10458048;28;20037;-72
2023/09/25 16:29:30;;;;;;;0.52;0.50;;;;;;;19.99;60.23;153726.22;10500199;28;20404;-72
2023/09/25 16:34:32;;;;;;;0.57;0.57;;;;;;;19.74;61.24;153661.22;10480341;28;20102;-73
2023/09/25 16:39:34;;;;;;;0.70;0.60;;;;;;;19.48;62.20;153594.88;10498593;28;20573;-72
2023/09/25 16:44:36;;;;;;;0.60;0.60;;;;;;;19.52;63.38;153605.28;10498688;28;20048;-72
2023/09/25 16:49:38;;;;;;;1.30;0.60;;;;;;;19.39;64.62;153572.84;10500193;28;20047;-73
2023/09/25 16:54:41;;;;;;;0.73;0.70;;;;;;;19.41;65.67;153579.31;10500191;28;20051;-71
2023/09/25 16:59:43;;;;;;;0.60;0.52;;;;;;;19.53;65.37;153607.91;10506038;28;20120;-73
2023/09/25 17:04:45;;;;;;;0.82;0.80;;;;;;;19.29;66.32;153546.81;10506438;28;20086;-72
2023/09/25 17:09:47;;;;;;;0.75;0.60;;;;;;;19.38;66.28;153570.19;10505718;28;20049;-72
2023/09/25 17:14:53;;;;;;;0.88;0.70;;;;;;;19.19;67.18;153520.84;10488968;28;20070;-73
2023/09/25 17:19:58;;;;;;;1.45;0.90;;;;;;;18.90;68.49;153448.06;10452448;28;20064;-72
2023/09/25 17:25:01;;;;;;;0.68;0.60;;;;;;;18.85;69.08;153435.09;10446492;28;20045;-72
2023/09/25 17:30:03;;;;;;;1.27;0.60;;;;;;;18.39;70.72;153319.47;10462996;28;20393;-72
2023/09/25 17:35:05;;;;;;;0.68;0.68;;;;;;;18.36;74.14;153310.38;10464645;28;20096;-71
2023/09/25 17:40:09;;;;;;;1.00;0.90;;;;;;;18.02;74.99;153223.44;10463761;28;20408;-71
2023/09/25 17:45:11;;;;;;;1.00;0.90;;;;;;;17.60;76.51;153116.94;10462489;28;20564;-73
2023/09/25 17:50:12;;;;;;;0.75;0.70;;;;;;;17.28;77.42;153035.19;10465145;28;20157;-72
2023/09/25 17:55:15;;;;;;;1.02;0.93;;;;;;;17.00;79.24;152963.81;10505222;28;20029;-71
2023/09/25 18:00:18;;;;;;;1.13;1.02;;;;;;;17.06;82.12;152979.41;10502087;28;20127;-72
2023/09/25 18:05:20;;;;;;;1.23;1.13;;;;;;;17.35;80.82;153054.66;10469535;28;20056;-71
2023/09/25 18:10:22;;;;;;;3.50;3.03;;;;;;;16.97;82.77;152956.06;10503016;28;20101;-71
2023/09/25 18:15:24;;;;;;;3.33;2.67;;;;;;;16.62;84.63;152867.81;10468774;28;20087;-71
2023/09/25 18:20:26;;;;;;;3.38;2.90;;;;;;;16.73;83.48;152895.06;10504915;28;20045;-71
2023/09/25 18:25:28;;;;;;;2.30;1.90;;;;;;;16.77;84.79;152905.44;10503087;28;20033;-71
2023/09/25 18:30:29;;;;;;;2.15;1.95;;;;;;;16.60;85.39;152863.94;10504067;28;20142;-72
2023/09/25 18:35:31;;;;;;;2.22;2.03;;;;;;;16.11;88.31;152739.47;10502510;28;20048;-72
2023/09/25 18:40:33;;;;;;;6.78;3.17;;;;;;;16.06;89.43;152726.44;10504417;28;20045;-72
2023/09/25 18:45:37;;;;;;;2.95;1.98;;;;;;;16.05;89.45;152723.88;10484624;28;20040;-71
2023/09/25 18:50:41;;;;;;;1.80;1.58;;;;;;;15.97;89.49;152703.13;10502014;28;20127;-70
2023/09/25 18:55:44;;;;;;;2.53;1.90;;;;;;;15.82;90.70;152665.53;10484226;28;20070;-70
2023/09/25 19:00:49;;;;;;;2.28;1.88;;;;;;;15.28;93.15;152528.16;10485195;28;20094;-70
2023/09/25 19:05:53;;;;;;;2.67;2.03;;;;;;;14.98;94.62;152451.72;10501935;28;20048;-69
2023/09/25 19:10:54;;;;;;;2.42;2.05;;;;;;;15.35;95.31;152546.25;10502235;28;20036;-71
2023/09/25 19:15:57;;;;;;;1.73;1.63;;;;;;;15.22;95.51;152512.56;10501194;28;20040;-70
2023/09/25 19:20:59;;;;;;;2.10;1.90;;;;;;;15.18;96.23;152500.91;10500794;28;20044;-71
2023/09/25 19:26:01;;;;;;;2.42;2.10;;;;;;;15.09;95.44;152478.88;10503866;28;20087;-70
2023/09/25 19:31:02;;;;;;;2.45;2.20;;;;;;;14.81;97.27;152408.94;10483739;28;20045;-70
2023/09/25 19:36:11;;;;;;;2.28;2.08;;;;;;;14.70;98.10;152379.16;10501006;28;20083;-70
2023/09/25 19:41:13;;;;;;;2.13;1.73;;;;;;;14.47;99.44;152320.81;10484906;28;20055;-70
2023/09/25 19:46:15;;;;;;;2.17;1.83;;;;;;;14.33;100.00;152285.88;10503359;28;20064;-70
2023/09/25 19:51:17;;;;;;;2.30;2.10;;;;;;;14.26;100.00;152267.78;10482127;28;20048;-70
2023/09/25 19:56:18;;;;;;;2.17;1.95;;;;;;;14.28;100.00;152272.94;10500322;28;20032;-70
2023/09/25 20:01:20;;;;;;;3.15;2.47;;;;;;;14.54;100.00;152340.31;10501133;28;20443;-70
2023/09/25 20:06:22;;;;;;;2.20;2.00;;;;;;;14.64;100.00;152364.91;10503546;28;20044;-70
2023/09/25 20:11:25;;;;;;;3.60;1.98;;;;;;;14.37;100.00;152296.22;10504982;28;20056;-71
2023/09/25 20:16:27;;;;;;;2.70;2.22;;;;;;;14.24;100.00;152262.56;10512557;28;20040;-70
2023/09/25 20:21:29;;;;;;;2.80;2.60;;;;;;;14.28;100.00;152272.94;10502034;28;20045;-70
2023/09/25 20:26:31;;;;;;;3.58;2.75;;;;;;;14.28;100.00;152272.94;10500716;28;20060;-73
2023/09/25 20:31:33;;;;;;;3.72;2.97;;;;;;;14.13;100.00;152236.69;10502952;28;20044;-69
2023/09/25 20:36:35;;;;;;;3.05;2.67;;;;;;;14.01;100.00;152204.31;10491677;28;20037;-71
2023/09/25 20:41:36;;;;;;;2.40;2.20;;;;;;;13.88;100.00;152171.97;10507594;28;20090;-69
2023/09/25 20:46:38;;;;;;;3.85;2.50;;;;;;;13.76;100.00;152142.19;10506322;28;20037;-69
2023/09/25 20:51:40;;;;;;;2.72;2.30;;;;;;;13.89;100.00;152174.53;10489709;28;20041;-70
2023/09/25 20:56:42;;;;;;;3.20;2.90;;;;;;;13.78;99.27;152146.09;10507163;28;20048;-70
2023/09/25 21:01:44;;;;;;;3.35;2.58;;;;;;;13.62;100.00;152107.25;10507525;28;20411;-70
2023/09/25 21:06:46;;;;;;;2.35;2.15;;;;;;;13.54;100.00;152085.25;10473204;28;20044;-70
2023/09/25 21:11:47;;;;;;;2.92;2.60;;;;;;;13.46;100.00;152064.53;10506568;28;20389;-71
2023/09/25 21:16:49;;;;;;;2.33;2.13;;;;;;;13.42;100.00;152055.50;10507848;28;20044;-71
2023/09/25 21:21:51;;;;;;;3.30;2.50;;;;;;;13.33;100.00;152033.50;10487674;28;20044;-72
2023/09/25 21:26:53;;;;;;;2.78;2.45;;;;;;;13.21;100.00;152002.41;10486748;28;20048;-70
2023/09/25 21:31:55;;;;;;;3.83;3.17;;;;;;;13.32;100.00;152030.88;10505546;28;20051;-71
2023/09/25 21:36:57;;;;;;;3.70;3.40;;;;;;;13.36;100.00;152039.94;10506074;28;20052;-71
2023/09/25 21:41:58;;;;;;;4.15;2.80;;;;;;;13.34;100.00;152036.09;10486048;28;20527;-71
2023/09/25 21:47:00;;;;;;;3.45;2.90;;;;;;;13.03;100.00;151957.13;10504431;28;20123;-71
2023/09/25 21:52:03;;;;;;;3.40;2.85;;;;;;;12.98;100.00;151944.19;10504205;28;20048;-72
2023/09/25 21:57:05;;;;;;;2.72;2.42;;;;;;;12.98;100.00;151944.19;10509122;28;20055;-71
2023/09/25 22:02:07;;;;;;;3.08;2.47;;;;;;;13.02;100.00;151954.56;10506093;28;20052;-71
2023/09/25 22:07:09;;;;;;;3.78;3.38;;;;;;;12.90;100.00;151923.50;10485297;28;20495;-71
2023/09/25 22:12:11;;;;;;;3.22;2.50;;;;;;;12.85;100.00;151910.56;10484886;28;20052;-71
2023/09/25 22:17:13;;;;;;;3.22;2.80;;;;;;;12.91;100.00;151924.78;10503001;28;20045;-71
2023/09/25 22:22:14;;;;;;;4.00;2.75;;;;;;;12.91;100.00;151926.06;10503317;28;20072;-71
2023/09/25 22:27:16;;;;;;;4.18;2.63;;;;;;;13.00;100.00;151949.34;10501907;28;20162;-70
2023/09/25 22:32:18;;;;;;;2.38;2.00;;;;;;;12.74;100.00;151883.38;10501350;28;20068;-71
2023/09/25 22:37:21;;;;;;;3.58;3.08;;;;;;;12.72;100.00;151878.22;10501925;28;20040;-70
2023/09/25 22:42:23;;;;;;;3.10;2.78;;;;;;;12.47;100.00;151814.84;10502580;28;20037;-70
2023/09/25 22:47:25;;;;;;;4.72;2.90;;;;;;;12.33;100.00;151779.94;10500926;28;20412;-71
2023/09/25 22:52:26;;;;;;;2.63;2.28;;;;;;;12.28;100.00;151767.03;10501599;28;20036;-71
2023/09/25 22:57:28;;;;;;;3.15;2.60;;;;;;;12.31;100.00;151774.81;10500579;28;20036;-71
2023/09/25 23:02:30;;;;;;;3.90;3.08;;;;;;;12.56;100.00;151838.13;10484268;28;20055;-71
2023/09/25 23:07:32;;;;;;;3.90;2.60;;;;;;;12.60;100.00;151847.19;10482409;28;20151;-71